createdAt,value
2023-05-10T00:01:21.888Z,55.50
2023-05-10T00:04:07.817Z,55.72
2023-05-10T00:06:53.742Z,56.17
2023-05-10T00:09:39.419Z,55.80
2023-05-10T00:12:24.893Z,56.43
2023-05-10T00:15:10.645Z,57.00
2023-05-10T00:17:56.273Z,57.13
2023-05-10T00:20:41.660Z,56.74
2023-05-10T00:23:26.978Z,56.88
2023-05-10T00:26:12.387Z,56.72
2023-05-10T00:28:59.599Z,57.65
2023-05-10T00:31:44.896Z,57.39
2023-05-10T00:34:30.285Z,58.01
2023-05-10T00:37:15.838Z,58.04
2023-05-10T00:40:01.262Z,57.64
2023-05-10T00:42:46.714Z,57.93
2023-05-10T00:45:34.062Z,58.55
2023-05-10T00:48:19.936Z,58.04
2023-05-10T00:51:05.970Z,58.20
2023-05-10T00:53:52.447Z,58.78
2023-05-10T00:56:38.845Z,58.22
2023-05-10T00:59:24.841Z,58.97
2023-05-10T01:02:10.172Z,58.21
2023-05-10T01:04:56.312Z,59.04
2023-05-10T01:07:42.572Z,59.31
2023-05-10T01:10:28.998Z,59.02
2023-05-10T01:13:19.865Z,59.09
2023-05-10T01:16:07.876Z,59.81
2023-05-10T01:18:54.039Z,59.88
2023-05-10T01:21:46.108Z,59.86
2023-05-10T01:24:54.898Z,60.93
2023-05-10T01:27:59.249Z,62.16
2023-05-10T01:30:58.098Z,60.24
2023-05-10T01:34:06.829Z,60.46
2023-05-10T01:37:07.196Z,61.79
2023-05-10T01:40:04.010Z,60.90
2023-05-10T01:42:58.178Z,60.75
2023-05-10T01:46:11.565Z,61.51
2023-05-10T01:49:00.454Z,60.76
2023-05-10T01:51:49.950Z,60.62
2023-05-10T01:54:36.847Z,61.11
2023-05-10T01:57:28.540Z,61.35
2023-05-10T02:00:16.029Z,60.75
2023-05-10T02:03:06.743Z,61.62
2023-05-10T02:05:54.791Z,61.24
2023-05-10T02:08:42.154Z,60.97
2023-05-10T02:11:29.331Z,61.02
2023-05-10T02:14:16.726Z,61.13
2023-05-10T02:17:05.371Z,61.66
2023-05-10T02:19:53.082Z,60.89
2023-05-10T02:22:40.222Z,61.05
2023-05-10T02:25:26.650Z,62.73
2023-05-10T02:28:14.175Z,61.59
2023-05-10T02:31:00.047Z,61.75
2023-05-10T02:33:47.912Z,62.09
2023-05-10T02:36:34.477Z,62.01
2023-05-10T02:39:21.461Z,62.67
2023-05-10T02:42:07.474Z,62.14
2023-05-10T02:44:57.658Z,61.69
2023-05-10T02:47:44.772Z,61.79
2023-05-10T02:50:33.479Z,62.73
2023-05-10T02:53:26.055Z,61.99
2023-05-10T02:56:33.125Z,62.71
2023-05-10T02:59:18.924Z,62.56
2023-05-10T03:02:04.911Z,62.60
2023-05-10T03:04:50.662Z,62.57
2023-05-10T03:07:36.903Z,62.41
2023-05-10T03:10:27.894Z,62.54
2023-05-10T03:13:30.062Z,63.09
2023-05-10T03:16:29.048Z,63.42
2023-05-10T03:19:46.746Z,62.66
2023-05-10T03:22:36.274Z,63.14
2023-05-10T03:25:23.954Z,63.25
2023-05-10T03:28:13.186Z,62.65
2023-05-10T03:31:00.729Z,63.01
2023-05-10T03:33:49.862Z,64.54
2023-05-10T03:36:40.405Z,63.76
2023-05-10T03:39:26.028Z,63.60
2023-05-10T03:42:15.577Z,63.81
2023-05-10T03:45:00.958Z,63.73
2023-05-10T03:47:46.351Z,63.75
2023-05-10T03:50:32.403Z,63.66
2023-05-10T03:53:17.716Z,63.64
2023-05-10T03:56:03.266Z,64.37
2023-05-10T03:58:48.607Z,64.06
2023-05-10T04:01:37.131Z,64.61
2023-05-10T04:04:23.042Z,64.00
2023-05-10T04:07:10.705Z,64.79
2023-05-10T04:09:56.402Z,64.40
2023-05-10T04:12:42.665Z,64.38
2023-05-10T04:15:28.161Z,64.69
2023-05-10T04:18:13.685Z,64.35
2023-05-10T04:20:59.209Z,64.13
2023-05-10T04:23:44.467Z,64.74
2023-05-10T04:26:30.005Z,64.02
2023-05-10T04:29:15.254Z,64.28
2023-05-10T04:32:00.603Z,64.35
2023-05-10T04:34:45.974Z,65.20
2023-05-10T04:37:31.627Z,64.37
2023-05-10T04:40:17.656Z,65.09
2023-05-10T04:43:03.074Z,64.68
2023-05-10T04:45:48.424Z,64.38
2023-05-10T04:48:34.046Z,64.80
2023-05-10T04:51:19.724Z,65.24
2023-05-10T04:54:06.637Z,64.68
2023-05-10T04:56:52.417Z,65.18
2023-05-10T04:59:38.675Z,64.78
2023-05-10T05:02:24.827Z,65.09
2023-05-10T05:05:10.464Z,64.84
2023-05-10T05:07:55.893Z,64.58
2023-05-10T05:10:41.104Z,64.86
2023-05-10T05:13:26.777Z,65.14
2023-05-10T05:16:12.681Z,65.06
2023-05-10T05:18:58.435Z,64.35
2023-05-10T05:21:44.407Z,64.23
2023-05-10T05:24:30.134Z,64.40
2023-05-10T05:27:15.430Z,63.71
2023-05-10T05:30:00.775Z,64.08
2023-05-10T05:32:48.101Z,63.66
2023-05-10T05:35:34.296Z,64.05
2023-05-10T05:38:19.901Z,63.97
2023-05-10T05:41:05.259Z,63.81
2023-05-10T05:43:50.943Z,63.74
2023-05-10T05:46:36.463Z,63.62
2023-05-10T05:49:21.871Z,63.47
2023-05-10T05:52:07.423Z,63.55
2023-05-10T05:54:53.047Z,63.07
2023-05-10T05:57:38.761Z,63.55
2023-05-10T06:00:25.069Z,63.21
2023-05-10T06:03:10.551Z,62.91
2023-05-10T06:05:56.451Z,63.23
2023-05-10T06:08:41.745Z,62.93
2023-05-10T06:11:27.277Z,63.17
2023-05-10T06:14:13.115Z,62.63
2023-05-10T06:17:00.822Z,63.08
2023-05-10T06:19:46.731Z,62.66
2023-05-10T06:22:32.291Z,63.13
2023-05-10T06:25:19.271Z,63.38
2023-05-10T06:28:05.155Z,63.14
2023-05-10T06:30:50.514Z,62.89
2023-05-10T06:33:36.348Z,62.98
2023-05-10T06:36:22.984Z,62.97
2023-05-10T06:39:08.609Z,62.60
2023-05-10T06:41:53.923Z,62.49
2023-05-10T06:44:39.334Z,62.25
2023-05-10T06:47:24.855Z,62.42
2023-05-10T06:50:10.752Z,62.42
2023-05-10T06:52:56.792Z,62.29
2023-05-10T06:55:42.556Z,62.27
2023-05-10T06:58:27.832Z,62.62
2023-05-10T07:01:13.511Z,62.63
2023-05-10T07:03:59.444Z,62.75
2023-05-10T07:06:45.844Z,62.64
2023-05-10T07:09:31.502Z,62.39
2023-05-10T07:12:16.907Z,62.36
2023-05-10T07:15:02.656Z,62.50
2023-05-10T07:17:48.274Z,62.48
2023-05-10T07:20:34.387Z,62.30
2023-05-10T07:23:20.447Z,62.38
2023-05-10T07:26:06.087Z,62.18
2023-05-10T07:28:51.565Z,61.96
2023-05-10T07:31:37.147Z,62.09
2023-05-10T07:34:22.529Z,62.47
2023-05-10T07:37:08.468Z,62.27
2023-05-10T07:39:53.967Z,62.30
2023-05-10T07:42:39.418Z,62.62
2023-05-10T07:45:25.226Z,62.18
2023-05-10T07:48:11.006Z,62.42
2023-05-10T07:50:56.445Z,62.09
2023-05-10T07:53:41.770Z,62.42
2023-05-10T07:56:32.857Z,62.33
2023-05-10T07:59:18.750Z,62.03
2023-05-10T08:02:04.234Z,62.48
2023-05-10T08:04:49.981Z,62.21
2023-05-10T08:07:35.512Z,62.40
2023-05-10T08:10:20.992Z,62.63
2023-05-10T08:13:07.151Z,62.59
2023-05-10T08:15:54.090Z,62.87
2023-05-10T08:18:40.284Z,62.95
2023-05-10T08:21:27.043Z,62.76
2023-05-10T08:24:12.805Z,63.43
2023-05-10T08:26:58.370Z,63.37
2023-05-10T08:29:50.203Z,63.49
2023-05-10T08:32:36.233Z,63.96
2023-05-10T08:35:21.855Z,63.91
2023-05-10T08:38:08.026Z,64.62
2023-05-10T08:40:57.654Z,64.39
2023-05-10T08:43:47.303Z,64.71
2023-05-10T08:46:35.963Z,64.90
2023-05-10T08:49:22.665Z,64.86
2023-05-10T08:52:09.306Z,65.37
2023-05-10T08:54:54.740Z,65.51
2023-05-10T08:57:40.508Z,65.67
2023-05-10T09:00:27.961Z,65.68
2023-05-10T09:03:14.034Z,65.92
2023-05-10T09:05:59.781Z,65.71
2023-05-10T09:08:46.900Z,66.19
2023-05-10T09:11:33.105Z,66.35
2023-05-10T09:14:19.601Z,66.16
2023-05-10T09:17:05.687Z,66.51
2023-05-10T09:19:51.443Z,66.66
2023-05-10T09:22:37.262Z,66.62
2023-05-10T09:25:23.717Z,66.80
2023-05-10T09:28:10.603Z,67.04
2023-05-10T09:30:56.838Z,67.09
2023-05-10T09:33:50.150Z,67.78
2023-05-10T09:36:35.707Z,67.35
2023-05-10T09:39:21.649Z,67.42
2023-05-10T09:42:10.089Z,67.47
2023-05-10T09:45:01.501Z,68.06
2023-05-10T09:47:47.194Z,67.91
2023-05-10T09:50:32.781Z,67.98
2023-05-10T09:53:18.813Z,67.85
2023-05-10T09:56:04.536Z,67.94
2023-05-10T09:59:03.685Z,68.57
2023-05-10T10:01:53.807Z,68.30
2023-05-10T10:04:42.831Z,68.06
2023-05-10T10:07:28.901Z,68.62
2023-05-10T10:10:14.770Z,68.74
2023-05-10T10:13:00.835Z,68.66
2023-05-10T10:15:47.907Z,68.81
2023-05-10T10:18:34.497Z,68.75
2023-05-10T10:21:21.346Z,68.79
2023-05-10T10:24:07.511Z,69.12
2023-05-10T10:26:57.045Z,68.64
2023-05-10T10:30:10.796Z,69.03
2023-05-10T10:33:24.372Z,70.01
2023-05-10T10:36:14.491Z,69.01
2023-05-10T10:39:02.343Z,69.12
2023-05-10T10:41:52.259Z,69.50
2023-05-10T10:44:39.335Z,69.96
2023-05-10T10:47:34.201Z,69.15
2023-05-10T10:50:19.949Z,69.80
2023-05-10T10:53:13.202Z,69.86
2023-05-10T10:56:14.554Z,70.16
2023-05-10T10:59:00.826Z,69.73
2023-05-10T11:01:52.552Z,69.55
2023-05-10T11:04:47.550Z,69.43
2023-05-10T11:07:33.124Z,70.15
2023-05-10T11:10:21.981Z,69.59
2023-05-10T11:13:09.596Z,69.57
2023-05-10T11:15:55.673Z,69.72
2023-05-10T11:18:41.774Z,69.85
2023-05-10T11:21:27.415Z,70.08
2023-05-10T11:24:21.031Z,69.83
2023-05-10T11:27:07.041Z,70.08
2023-05-10T11:29:53.096Z,69.82
2023-05-10T11:32:39.656Z,69.89
2023-05-10T11:35:25.378Z,70.02
2023-05-10T11:38:12.271Z,69.71
2023-05-10T11:40:57.535Z,69.62
2023-05-10T11:43:43.762Z,69.25
2023-05-10T11:46:29.691Z,69.59
2023-05-10T11:49:15.348Z,69.15
2023-05-10T11:52:09.737Z,69.75
2023-05-10T11:54:56.198Z,69.03
2023-05-10T11:57:42.874Z,69.09
2023-05-10T12:00:28.948Z,69.77
2023-05-10T12:03:14.717Z,69.54
2023-05-10T12:06:02.097Z,69.91
2023-05-10T12:08:50.933Z,69.47
2023-05-10T12:11:44.033Z,68.98
2023-05-10T12:14:34.256Z,69.27
2023-05-10T12:17:20.305Z,69.54
2023-05-10T12:20:20.007Z,69.58
2023-05-10T12:23:06.533Z,69.67
2023-05-10T12:25:55.008Z,70.00
2023-05-10T12:28:40.789Z,70.22
2023-05-10T12:31:26.465Z,69.71
2023-05-10T12:34:11.962Z,70.22
2023-05-10T12:36:57.999Z,70.51
2023-05-10T12:39:45.849Z,70.77
2023-05-10T12:42:32.582Z,72.84
2023-05-10T12:45:19.336Z,70.65
2023-05-10T12:48:05.127Z,70.19
2023-05-10T12:50:51.007Z,70.75
2023-05-10T12:53:37.755Z,69.93
2023-05-10T12:56:23.474Z,70.60
2023-05-10T12:59:08.805Z,70.52
2023-05-10T13:01:54.351Z,70.72
2023-05-10T13:04:40.831Z,69.94
2023-05-10T13:07:26.685Z,70.17
2023-05-10T13:10:12.441Z,70.41
2023-05-10T13:12:59.098Z,69.57
2023-05-10T13:15:44.449Z,70.30
2023-05-10T13:18:30.258Z,70.37
2023-05-10T13:21:15.963Z,70.68
2023-05-10T13:24:02.421Z,70.06
2023-05-10T13:26:48.078Z,70.74
2023-05-10T13:29:33.531Z,70.57
2023-05-10T13:32:19.063Z,70.60
2023-05-10T13:35:05.943Z,69.86
2023-05-10T13:37:51.702Z,70.32
2023-05-10T13:40:37.288Z,70.34
2023-05-10T13:43:22.675Z,71.12
2023-05-10T13:46:08.373Z,70.82
2023-05-10T13:48:54.040Z,70.69
2023-05-10T13:51:39.645Z,70.16
2023-05-10T13:54:25.487Z,70.62
2023-05-10T13:57:12.929Z,69.90
2023-05-10T13:59:58.580Z,70.66
2023-05-10T14:02:44.704Z,70.47
2023-05-10T14:05:30.617Z,70.50
2023-05-10T14:08:16.252Z,70.59
2023-05-10T14:11:01.422Z,69.97
2023-05-10T14:13:47.116Z,70.20
2023-05-10T14:16:32.759Z,70.57
2023-05-10T14:19:18.510Z,70.51
2023-05-10T14:22:04.090Z,70.79
2023-05-10T14:24:49.824Z,70.80
2023-05-10T14:27:35.572Z,70.55
2023-05-10T14:30:21.686Z,70.68
2023-05-10T14:33:06.862Z,70.94
2023-05-10T14:35:52.519Z,70.71
2023-05-10T14:38:38.117Z,70.76
2023-05-10T14:41:25.770Z,71.15
2023-05-10T14:44:11.577Z,71.07
2023-05-10T14:46:57.550Z,71.19
2023-05-10T14:49:43.144Z,71.22
2023-05-10T14:52:28.745Z,70.78
2023-05-10T14:55:14.036Z,71.29
2023-05-10T14:57:59.606Z,71.63
2023-05-10T15:00:45.600Z,71.26
2023-05-10T15:03:31.887Z,71.58
2023-05-10T15:06:18.157Z,71.01
2023-05-10T15:09:07.230Z,71.91
2023-05-10T15:11:52.860Z,71.15
2023-05-10T15:14:38.537Z,71.82
2023-05-10T15:17:24.338Z,71.20
2023-05-10T15:20:10.191Z,71.04
2023-05-10T15:22:56.218Z,71.54
2023-05-10T15:25:41.926Z,71.61
2023-05-10T15:28:27.685Z,71.82
2023-05-10T15:31:13.392Z,71.75
2023-05-10T15:34:01.930Z,71.83
2023-05-10T15:36:47.843Z,71.93
2023-05-10T15:39:33.403Z,72.05
2023-05-10T15:42:18.926Z,72.01
2023-05-10T15:45:05.145Z,71.51
2023-05-10T15:47:50.631Z,71.86
2023-05-10T15:50:36.456Z,71.53
2023-05-10T15:53:22.023Z,72.25
2023-05-10T15:56:07.717Z,72.05
2023-05-10T15:58:53.381Z,72.35
2023-05-10T16:01:38.969Z,72.30
2023-05-10T16:04:24.612Z,72.51
2023-05-10T16:07:09.988Z,71.87
2023-05-10T16:09:55.523Z,72.70
2023-05-10T16:12:41.393Z,72.45
2023-05-10T16:15:27.427Z,72.46
2023-05-10T16:18:13.374Z,72.15
2023-05-10T16:20:59.389Z,71.98
2023-05-10T16:23:46.499Z,72.79
2023-05-10T16:26:32.370Z,72.82
2023-05-10T16:29:17.746Z,72.79
2023-05-10T16:32:03.570Z,72.69
2023-05-10T16:34:50.301Z,73.01
2023-05-10T16:37:36.046Z,73.48
2023-05-10T16:40:22.166Z,73.16
2023-05-10T16:43:07.969Z,73.00
2023-05-10T16:45:53.420Z,72.96
2023-05-10T16:48:39.042Z,73.75
2023-05-10T16:51:24.233Z,73.25
2023-05-10T16:54:09.865Z,73.62
2023-05-10T16:56:55.231Z,73.65
2023-05-10T16:59:40.868Z,73.21
2023-05-10T17:02:26.854Z,73.74
2023-05-10T17:05:12.274Z,73.63
2023-05-10T17:07:58.136Z,73.90
2023-05-10T17:10:44.131Z,73.76
2023-05-10T17:13:30.454Z,74.16
2023-05-10T17:16:16.087Z,73.75
2023-05-10T17:19:02.310Z,73.64
2023-05-10T17:21:48.200Z,73.76
2023-05-10T17:24:33.822Z,73.92
2023-05-10T17:27:19.271Z,74.04
2023-05-10T17:30:05.296Z,73.52
2023-05-10T17:32:51.298Z,74.32
2023-05-10T17:35:37.049Z,74.25
2023-05-10T17:38:22.863Z,74.35
2023-05-10T17:41:08.307Z,74.29
2023-05-10T17:43:54.666Z,74.15
2023-05-10T17:46:40.152Z,74.18
2023-05-10T17:49:25.698Z,74.34
2023-05-10T17:52:11.788Z,74.91
2023-05-10T17:54:57.470Z,74.34
2023-05-10T17:57:43.218Z,74.44
2023-05-10T18:00:28.765Z,74.35
2023-05-10T18:03:14.145Z,74.85
2023-05-10T18:05:59.760Z,75.20
2023-05-10T18:08:45.407Z,74.84
2023-05-10T18:11:31.186Z,74.78
2023-05-10T18:14:28.283Z,74.86
2023-05-10T18:17:21.876Z,74.93
2023-05-10T18:20:08.361Z,75.10
2023-05-10T18:22:55.190Z,75.31
2023-05-10T18:25:40.508Z,74.97
2023-05-10T18:28:26.310Z,75.01
2023-05-10T18:31:12.665Z,75.15
2023-05-10T18:33:58.009Z,75.28
2023-05-10T18:36:43.874Z,75.05
2023-05-10T18:39:29.838Z,75.37
2023-05-10T18:42:16.144Z,75.79
2023-05-10T18:45:01.611Z,75.52
2023-05-10T18:47:47.279Z,75.34
2023-05-10T18:50:32.830Z,75.56
2023-05-10T18:53:18.425Z,76.11
2023-05-10T18:56:04.347Z,75.47
2023-05-10T18:58:50.041Z,75.83
2023-05-10T19:01:35.474Z,76.17
2023-05-10T19:04:21.170Z,75.78
2023-05-10T19:07:07.016Z,75.75
2023-05-10T19:09:52.577Z,75.52
2023-05-10T19:12:38.180Z,75.77
2023-05-10T19:15:23.739Z,76.03
2023-05-10T19:18:10.041Z,75.98
2023-05-10T19:20:56.648Z,76.59
2023-05-10T19:23:43.163Z,76.41
2023-05-10T19:26:28.893Z,76.54
2023-05-10T19:29:14.695Z,76.26
2023-05-10T19:32:00.816Z,76.17
2023-05-10T19:34:46.784Z,76.80
2023-05-10T19:37:32.326Z,76.50
2023-05-10T19:40:18.652Z,76.74
2023-05-10T19:43:04.515Z,76.43
2023-05-10T19:45:49.753Z,76.49
2023-05-10T19:48:35.140Z,76.58
2023-05-10T19:51:20.731Z,76.47
2023-05-10T19:54:06.583Z,76.78
2023-05-10T19:56:52.114Z,77.14
2023-05-10T19:59:37.808Z,77.20
2023-05-10T20:02:23.536Z,77.25
2023-05-10T20:05:09.216Z,77.16
2023-05-10T20:07:54.980Z,77.56
2023-05-10T20:10:40.626Z,77.84
2023-05-10T20:13:26.367Z,77.67
2023-05-10T20:16:12.272Z,77.52
2023-05-10T20:18:57.958Z,77.40
2023-05-10T20:21:44.006Z,77.27
2023-05-10T20:24:29.599Z,77.56
2023-05-10T20:27:15.005Z,77.55
2023-05-10T20:30:00.505Z,77.30
2023-05-10T20:32:45.787Z,77.57
2023-05-10T20:35:33.051Z,77.52
2023-05-10T20:38:18.696Z,77.53
2023-05-10T20:41:03.941Z,77.62
2023-05-10T20:43:49.430Z,77.68
2023-05-10T20:46:35.131Z,77.97
2023-05-10T20:49:21.216Z,78.49
2023-05-10T20:52:07.410Z,78.07
2023-05-10T20:54:53.125Z,77.51
2023-05-10T20:57:39.055Z,78.13
2023-05-10T21:00:24.667Z,78.32
2023-05-10T21:03:10.215Z,78.29
2023-05-10T21:05:55.780Z,78.37
2023-05-10T21:08:41.036Z,78.32
2023-05-10T21:11:26.805Z,78.40
2023-05-10T21:14:12.588Z,78.61
2023-05-10T21:16:57.945Z,78.32
2023-05-10T21:19:43.448Z,78.29
2023-05-10T21:22:28.947Z,78.59
2023-05-10T21:25:14.359Z,78.49
2023-05-10T21:28:00.294Z,78.68
2023-05-10T21:30:46.420Z,78.68
2023-05-10T21:33:32.059Z,78.97
2023-05-10T21:36:17.384Z,78.89
2023-05-10T21:39:03.431Z,78.73
2023-05-10T21:41:49.141Z,78.98
2023-05-10T21:44:34.878Z,78.89
2023-05-10T21:47:20.718Z,78.89
2023-05-10T21:50:06.790Z,78.74
2023-05-10T21:52:52.204Z,78.82
2023-05-10T21:55:37.684Z,78.61
2023-05-10T21:58:23.291Z,78.87
2023-05-10T22:01:09.059Z,79.21
2023-05-10T22:03:54.424Z,79.24
2023-05-10T22:06:39.966Z,79.43
2023-05-10T22:09:25.541Z,79.28
2023-05-10T22:12:12.088Z,79.10
2023-05-10T22:15:09.443Z,78.95
2023-05-10T22:17:56.472Z,79.16
2023-05-10T22:20:45.016Z,78.96
2023-05-10T22:23:30.857Z,79.34
2023-05-10T22:26:16.605Z,79.56
2023-05-10T22:29:03.099Z,79.41
2023-05-10T22:31:48.696Z,79.63
2023-05-10T22:34:35.397Z,79.57
2023-05-10T22:37:21.302Z,79.71
2023-05-10T22:40:07.901Z,79.73
2023-05-10T22:42:53.585Z,79.73
2023-05-10T22:45:39.422Z,79.69
2023-05-10T22:48:25.082Z,79.65
2023-05-10T22:51:10.615Z,79.76
2023-05-10T22:53:56.197Z,80.11
2023-05-10T22:56:41.502Z,79.68
2023-05-10T22:59:28.620Z,79.88
2023-05-10T23:02:15.414Z,79.70
2023-05-10T23:05:01.026Z,80.04
2023-05-10T23:07:52.834Z,79.90
2023-05-10T23:10:39.233Z,79.92
2023-05-10T23:13:24.862Z,79.88
2023-05-10T23:16:10.600Z,80.15
2023-05-10T23:18:56.627Z,79.69
2023-05-10T23:21:42.311Z,79.59
2023-05-10T23:24:28.051Z,80.01
2023-05-10T23:27:14.678Z,80.14
2023-05-10T23:29:59.980Z,80.04
2023-05-10T23:32:45.662Z,80.36
2023-05-10T23:35:31.460Z,80.11
2023-05-10T23:38:17.478Z,80.11
2023-05-10T23:41:03.367Z,80.33
2023-05-10T23:43:49.244Z,80.34
2023-05-10T23:46:35.148Z,80.25
2023-05-10T23:49:20.556Z,80.30
2023-05-10T23:52:05.922Z,80.51
2023-05-10T23:54:51.830Z,80.29
2023-05-10T23:57:37.258Z,80.78
